createdAt,value
2023-03-19T00:01:12.556Z,3.85
2023-03-19T00:03:42.093Z,3.58
2023-03-19T00:06:09.620Z,3.80
2023-03-19T00:08:37.534Z,7.32
2023-03-19T00:11:07.563Z,4.70
2023-03-19T00:16:08.844Z,7.95
2023-03-19T00:18:37.756Z,8.50
2023-03-19T00:21:06.098Z,7.20
2023-03-19T00:23:34.781Z,8.93
2023-03-19T00:26:03.991Z,7.15
2023-03-19T00:28:33.871Z,8.40
2023-03-19T00:31:30.955Z,6.15
2023-03-19T00:33:59.887Z,6.03
2023-03-19T00:36:28.887Z,7.17
2023-03-19T00:39:00.958Z,6.03
2023-03-19T00:41:29.027Z,5.80
2023-03-19T00:43:58.019Z,3.95
2023-03-19T00:46:27.596Z,5.38
2023-03-19T00:48:55.903Z,4.80
2023-03-19T00:51:25.485Z,5.63
2023-03-19T00:53:54.073Z,5.60
2023-03-19T00:56:21.775Z,9.03
2023-03-19T00:58:51.173Z,10.52
2023-03-19T01:01:19.150Z,8.55
2023-03-19T01:03:47.500Z,7.88
2023-03-19T01:06:15.059Z,5.57
2023-03-19T01:08:44.363Z,7.78
2023-03-19T01:11:14.796Z,5.20
2023-03-19T01:13:42.468Z,5.32
2023-03-19T01:16:13.667Z,7.50
2023-03-19T01:18:41.617Z,6.40
2023-03-19T01:21:10.816Z,5.03
2023-03-19T01:23:44.852Z,6.50
2023-03-19T01:26:15.707Z,8.02
2023-03-19T01:28:44.482Z,14.27
2023-03-19T01:31:13.237Z,14.25
2023-03-19T01:33:47.754Z,6.53
2023-03-19T01:36:28.117Z,8.35
2023-03-19T01:39:05.064Z,9.05
2023-03-19T01:41:32.909Z,10.02
2023-03-19T01:44:31.712Z,7.22
2023-03-19T01:47:42.880Z,12.05
2023-03-19T01:50:29.129Z,11.13
2023-03-19T01:53:17.879Z,12.57
2023-03-19T01:56:21.863Z,13.45
2023-03-19T01:59:07.525Z,17.52
2023-03-19T02:02:29.241Z,16.98
2023-03-19T02:05:05.988Z,20.70
2023-03-19T02:07:38.653Z,16.42
2023-03-19T02:10:12.166Z,9.93
2023-03-19T02:12:40.278Z,11.32
2023-03-19T02:15:13.490Z,9.18
2023-03-19T02:17:42.699Z,7.40
2023-03-19T02:20:12.077Z,7.90
2023-03-19T02:22:57.795Z,8.38
2023-03-19T02:25:42.546Z,11.75
2023-03-19T02:28:11.132Z,7.32
2023-03-19T02:30:43.190Z,14.98
2023-03-19T02:33:18.282Z,13.00
2023-03-19T02:35:49.403Z,9.55
2023-03-19T02:38:22.460Z,10.18
2023-03-19T02:41:00.870Z,8.75
2023-03-19T02:45:59.100Z,11.10
2023-03-19T02:48:27.108Z,12.27
2023-03-19T02:50:54.888Z,20.75
2023-03-19T02:53:25.844Z,19.50
2023-03-19T02:55:53.808Z,19.70
2023-03-19T02:58:21.428Z,21.63
2023-03-19T03:00:52.110Z,20.17
2023-03-19T03:05:48.464Z,16.55
2023-03-19T03:08:16.860Z,20.00
2023-03-19T03:10:45.403Z,18.63
2023-03-19T03:13:16.180Z,22.98
2023-03-19T03:15:44.817Z,24.50
2023-03-19T03:18:12.414Z,15.10
2023-03-19T03:20:43.391Z,19.27
2023-03-19T03:23:12.065Z,12.52
2023-03-19T03:25:39.631Z,12.40
2023-03-19T03:28:08.894Z,9.05
2023-03-19T03:30:36.877Z,13.63
2023-03-19T03:33:04.421Z,7.30
2023-03-19T03:35:32.504Z,5.18
2023-03-19T03:38:00.162Z,7.75
2023-03-19T03:40:31.616Z,14.57
2023-03-19T03:43:00.241Z,11.35
2023-03-19T03:45:28.147Z,8.20
2023-03-19T03:47:56.432Z,7.35
2023-03-19T03:50:24.833Z,11.90
2023-03-19T03:52:54.963Z,13.07
2023-03-19T03:55:22.541Z,9.00
2023-03-19T03:57:50.207Z,11.35
2023-03-19T04:00:25.646Z,6.93
2023-03-19T04:02:53.755Z,12.65
2023-03-19T04:05:21.980Z,13.45
2023-03-19T04:07:52.788Z,12.30
2023-03-19T04:10:21.052Z,15.18
2023-03-19T04:12:49.806Z,10.60
2023-03-19T04:15:19.538Z,11.65
2023-03-19T04:17:49.012Z,11.40
2023-03-19T04:20:18.762Z,14.93
2023-03-19T04:22:48.432Z,16.75
2023-03-19T04:25:17.076Z,21.50
2023-03-19T04:27:45.734Z,23.40
2023-03-19T04:30:14.312Z,18.60
2023-03-19T04:32:46.602Z,17.27
2023-03-19T04:35:18.463Z,17.95
2023-03-19T04:37:48.854Z,10.13
2023-03-19T04:40:18.572Z,7.75
2023-03-19T04:42:48.955Z,6.00
2023-03-19T04:45:37.092Z,8.90
2023-03-19T04:48:05.019Z,13.18
2023-03-19T04:50:36.194Z,11.85
2023-03-19T04:53:04.334Z,13.52
2023-03-19T04:58:11.820Z,11.35
2023-03-19T05:00:41.973Z,16.92
2023-03-19T05:03:09.712Z,11.30
2023-03-19T05:05:37.486Z,15.00
2023-03-19T05:08:08.842Z,18.38
2023-03-19T05:10:38.228Z,13.77
2023-03-19T05:13:07.646Z,13.38
2023-03-19T05:15:45.861Z,12.20
2023-03-19T05:18:14.797Z,16.55
2023-03-19T05:20:51.337Z,13.35
2023-03-19T05:23:23.106Z,18.10
2023-03-19T05:26:19.249Z,19.55
2023-03-19T05:29:19.264Z,15.15
2023-03-19T05:32:07.996Z,19.20
2023-03-19T05:34:37.514Z,11.48
2023-03-19T05:37:05.211Z,14.98
2023-03-19T05:39:35.553Z,13.38
2023-03-19T05:42:07.493Z,16.42
2023-03-19T05:44:35.241Z,12.18
2023-03-19T05:47:25.133Z,13.77
2023-03-19T05:49:56.596Z,15.80
2023-03-19T05:52:25.202Z,17.67
2023-03-19T05:54:55.035Z,10.93
2023-03-19T05:57:41.256Z,14.35
2023-03-19T06:00:19.730Z,11.85
2023-03-19T06:02:49.030Z,24.08
2023-03-19T06:05:37.353Z,13.80
2023-03-19T06:08:15.541Z,10.35
2023-03-19T06:11:06.939Z,25.77
2023-03-19T06:13:35.718Z,15.30
2023-03-19T06:16:09.698Z,13.48
2023-03-19T06:18:43.333Z,9.65
2023-03-19T06:21:13.480Z,17.92
2023-03-19T06:23:41.856Z,12.43
2023-03-19T06:26:17.404Z,23.27
2023-03-19T06:28:56.742Z,16.25
2023-03-19T06:31:24.837Z,16.33
2023-03-19T06:34:02.257Z,12.90
2023-03-19T06:36:39.234Z,13.05
2023-03-19T06:39:16.716Z,14.18
2023-03-19T06:41:44.283Z,13.73
2023-03-19T06:44:19.177Z,16.40
2023-03-19T06:46:48.220Z,17.23
2023-03-19T06:49:16.048Z,11.77
2023-03-19T06:51:44.662Z,8.68
2023-03-19T06:54:14.497Z,14.07
2023-03-19T06:56:42.916Z,13.50
2023-03-19T06:59:16.056Z,15.68
2023-03-19T07:01:43.773Z,11.98
2023-03-19T07:04:11.409Z,19.60
2023-03-19T07:06:40.706Z,11.80
2023-03-19T07:09:09.533Z,12.52
2023-03-19T07:11:37.087Z,14.20
2023-03-19T07:14:05.329Z,12.23
2023-03-19T07:16:34.698Z,20.58
2023-03-19T07:19:02.296Z,16.42
2023-03-19T07:21:31.197Z,19.73
2023-03-19T07:23:58.806Z,14.55
2023-03-19T07:28:55.891Z,20.10
2023-03-19T07:31:23.450Z,22.58
2023-03-19T07:33:51.405Z,17.08
2023-03-19T07:36:19.500Z,18.58
2023-03-19T07:38:47.006Z,16.60
2023-03-19T07:41:15.292Z,29.27
2023-03-19T07:43:42.981Z,27.35
2023-03-19T07:46:10.682Z,17.40
2023-03-19T07:48:39.273Z,15.33
2023-03-19T07:51:07.365Z,27.88
2023-03-19T07:53:35.012Z,20.35
2023-03-19T07:56:02.888Z,18.58
2023-03-19T07:58:30.826Z,16.55
2023-03-19T08:00:58.892Z,18.40
2023-03-19T08:03:26.611Z,17.65
2023-03-19T08:05:54.155Z,21.55
2023-03-19T08:08:24.169Z,17.40
2023-03-19T08:10:54.887Z,13.18
2023-03-19T08:13:22.817Z,12.88
2023-03-19T08:15:51.304Z,12.13
2023-03-19T08:18:20.241Z,8.80
2023-03-19T08:20:48.162Z,11.35
2023-03-19T08:23:15.956Z,9.75
2023-03-19T08:25:44.304Z,10.25
2023-03-19T08:28:12.751Z,13.48
2023-03-19T08:30:41.529Z,13.73
2023-03-19T08:33:09.512Z,7.65
2023-03-19T08:35:39.057Z,11.20
2023-03-19T08:38:07.160Z,17.77
2023-03-19T08:40:35.007Z,12.85
2023-03-19T08:43:04.073Z,12.10
2023-03-19T08:45:31.732Z,15.82
2023-03-19T08:47:59.241Z,15.52
2023-03-19T08:50:29.545Z,9.18
2023-03-19T08:52:57.731Z,13.80
2023-03-19T08:55:25.475Z,15.73
2023-03-19T08:57:55.254Z,20.80
2023-03-19T09:00:23.301Z,14.85
2023-03-19T09:02:51.765Z,20.13
2023-03-19T09:05:25.726Z,21.02
2023-03-19T09:08:14.041Z,28.47
2023-03-19T09:10:42.602Z,14.57
2023-03-19T09:13:10.183Z,19.88
2023-03-19T09:15:38.972Z,17.13
2023-03-19T09:18:11.900Z,16.33
2023-03-19T09:20:40.650Z,19.85
2023-03-19T09:23:08.685Z,16.63
2023-03-19T09:25:37.160Z,14.00
2023-03-19T09:28:05.483Z,18.17
2023-03-19T09:30:33.216Z,14.13
2023-03-19T09:33:01.224Z,10.35
2023-03-19T09:35:31.412Z,11.68
2023-03-19T09:38:00.298Z,20.42
2023-03-19T09:40:36.907Z,12.60
2023-03-19T09:43:33.094Z,15.73
2023-03-19T09:46:03.469Z,19.50
2023-03-19T09:48:40.083Z,12.55
2023-03-19T09:51:14.916Z,13.40
2023-03-19T09:54:04.605Z,9.98
2023-03-19T09:59:01.064Z,11.65
2023-03-19T10:01:45.590Z,15.35
2023-03-19T10:04:32.844Z,12.98
2023-03-19T10:07:23.177Z,8.18
2023-03-19T10:10:16.448Z,8.20
2023-03-19T10:12:56.075Z,8.57
2023-03-19T10:15:29.921Z,15.77
2023-03-19T10:18:05.414Z,14.07
2023-03-19T10:20:43.312Z,12.27
2023-03-19T10:23:41.513Z,13.95
2023-03-19T10:26:15.954Z,9.05
2023-03-19T10:28:46.689Z,9.80
2023-03-19T10:31:28.034Z,10.48
2023-03-19T10:34:23.033Z,15.90
2023-03-19T10:37:00.263Z,14.73
2023-03-19T10:39:35.916Z,11.45
2023-03-19T10:42:33.170Z,11.00
2023-03-19T10:45:10.263Z,11.32
2023-03-19T10:47:40.965Z,10.15
2023-03-19T10:50:16.852Z,11.13
2023-03-19T10:52:46.348Z,10.55
2023-03-19T10:55:18.115Z,13.15
2023-03-19T10:57:50.648Z,8.02
2023-03-19T11:00:22.710Z,11.55
2023-03-19T11:02:53.957Z,10.60
2023-03-19T11:05:21.499Z,10.65
2023-03-19T11:07:51.361Z,15.27
2023-03-19T11:10:22.190Z,8.43
2023-03-19T11:13:00.897Z,8.95
2023-03-19T11:15:39.105Z,15.68
2023-03-19T11:18:28.723Z,15.45
2023-03-19T11:21:04.433Z,14.88
2023-03-19T11:23:40.387Z,12.13
2023-03-19T11:26:10.436Z,17.05
2023-03-19T11:28:42.907Z,15.18
2023-03-19T11:31:37.496Z,8.05
2023-03-19T11:34:34.044Z,8.75
2023-03-19T11:37:47.017Z,13.85
2023-03-19T11:40:24.697Z,9.43
2023-03-19T11:43:12.947Z,16.15
2023-03-19T11:46:02.854Z,17.38
2023-03-19T11:51:27.314Z,12.40
2023-03-19T11:54:19.260Z,13.25
2023-03-19T11:57:01.113Z,13.82
2023-03-19T11:59:51.628Z,13.07
2023-03-19T12:03:07.860Z,13.95
2023-03-19T12:05:52.347Z,10.18
2023-03-19T12:08:35.941Z,15.40
2023-03-19T12:11:18.612Z,11.52
2023-03-19T12:14:08.727Z,16.90
2023-03-19T12:16:55.971Z,10.52
2023-03-19T12:19:46.090Z,12.45
2023-03-19T12:22:29.205Z,13.27
2023-03-19T12:25:18.177Z,8.00
2023-03-19T12:28:00.773Z,18.10
2023-03-19T12:30:43.693Z,23.67
2023-03-19T12:33:32.823Z,11.77
2023-03-19T12:36:03.376Z,9.48
2023-03-19T12:38:37.126Z,8.55
2023-03-19T12:41:14.440Z,13.70
2023-03-19T12:44:04.194Z,13.75
2023-03-19T12:46:38.412Z,14.30
2023-03-19T12:49:16.063Z,12.23
2023-03-19T12:51:49.645Z,18.25
2023-03-19T12:54:36.743Z,10.57
2023-03-19T12:57:07.492Z,11.75
2023-03-19T12:59:35.526Z,11.52
2023-03-19T13:02:18.134Z,13.90
2023-03-19T13:04:53.990Z,16.08
2023-03-19T13:08:03.624Z,14.65
2023-03-19T13:13:48.655Z,10.40
2023-03-19T13:16:33.880Z,12.27
2023-03-19T13:19:13.569Z,15.57
2023-03-19T13:21:46.611Z,14.82
2023-03-19T13:24:32.524Z,12.13
2023-03-19T13:27:04.282Z,13.38
2023-03-19T13:29:39.011Z,41.85
2023-03-19T13:32:22.660Z,16.08
2023-03-19T13:34:50.302Z,16.50
2023-03-19T13:37:21.257Z,16.13
2023-03-19T13:39:49.597Z,16.52
2023-03-19T13:42:20.217Z,14.43
2023-03-19T13:45:03.149Z,15.45
2023-03-19T13:47:40.834Z,16.70
2023-03-19T13:50:51.321Z,19.83
2023-03-19T13:53:37.416Z,13.18
2023-03-19T13:56:26.304Z,17.73
2023-03-19T13:59:15.027Z,17.63
2023-03-19T14:01:47.755Z,21.73
2023-03-19T14:04:24.638Z,20.10
2023-03-19T14:06:59.298Z,14.10
2023-03-19T14:09:30.763Z,14.90
2023-03-19T14:12:23.179Z,14.65
2023-03-19T14:15:17.774Z,26.55
2023-03-19T14:17:54.344Z,16.42
2023-03-19T14:20:36.964Z,15.88
2023-03-19T14:23:39.502Z,14.20
2023-03-19T14:26:15.914Z,17.70
2023-03-19T14:28:55.011Z,13.98
2023-03-19T14:31:50.219Z,23.60
2023-03-19T14:34:24.811Z,18.05
2023-03-19T14:37:02.270Z,12.15
2023-03-19T14:39:32.846Z,12.95
2023-03-19T14:42:01.165Z,19.77
2023-03-19T14:44:37.797Z,18.63
2023-03-19T14:47:21.688Z,15.98
2023-03-19T14:50:11.844Z,18.90
2023-03-19T14:52:52.193Z,20.83
2023-03-19T14:55:19.942Z,11.10
2023-03-19T14:57:51.348Z,14.15
2023-03-19T15:00:20.611Z,25.10
2023-03-19T15:02:52.902Z,24.15
2023-03-19T15:05:30.927Z,14.30
2023-03-19T15:08:07.674Z,22.27
2023-03-19T15:10:46.951Z,13.75
2023-03-19T15:13:20.789Z,19.60
2023-03-19T15:16:08.113Z,16.60
2023-03-19T15:18:37.750Z,16.67
2023-03-19T15:21:06.356Z,17.33
2023-03-19T15:23:37.975Z,18.92
2023-03-19T15:26:08.784Z,23.88
2023-03-19T15:28:53.925Z,25.75
2023-03-19T15:31:36.578Z,19.10
2023-03-19T15:34:24.738Z,24.10
2023-03-19T15:37:02.425Z,30.02
2023-03-19T15:39:36.315Z,18.60
2023-03-19T15:42:09.765Z,24.77
2023-03-19T15:44:45.292Z,21.58
2023-03-19T15:47:20.175Z,21.70
2023-03-19T15:49:55.681Z,21.77
2023-03-19T15:52:25.589Z,21.48
2023-03-19T15:55:01.512Z,20.23
2023-03-19T15:57:29.847Z,26.75
2023-03-19T16:00:00.719Z,29.23
2023-03-19T16:02:34.017Z,22.80
2023-03-19T16:05:21.093Z,23.73
2023-03-19T16:08:17.688Z,36.70
2023-03-19T16:10:47.748Z,30.27
2023-03-19T16:13:39.481Z,20.55
2023-03-19T16:16:08.717Z,36.42
2023-03-19T16:18:52.153Z,27.67
2023-03-19T16:21:27.940Z,27.35
2023-03-19T16:23:59.759Z,31.02
2023-03-19T16:26:33.809Z,24.85
2023-03-19T16:29:25.060Z,25.75
2023-03-19T16:31:58.719Z,26.73
2023-03-19T16:34:39.648Z,34.00
2023-03-19T16:37:28.194Z,35.55
2023-03-19T16:39:58.188Z,28.85
2023-03-19T16:42:32.870Z,27.80
2023-03-19T16:45:16.092Z,26.25
2023-03-19T16:47:45.441Z,41.45
2023-03-19T16:50:13.927Z,40.90
2023-03-19T16:52:44.061Z,28.30
2023-03-19T16:58:07.422Z,27.50
2023-03-19T17:00:35.683Z,34.63
2023-03-19T17:03:03.440Z,37.30
2023-03-19T17:05:31.099Z,28.83
2023-03-19T17:07:59.069Z,32.75
2023-03-19T17:10:30.364Z,39.92
2023-03-19T17:12:58.644Z,36.85
2023-03-19T17:15:32.102Z,39.25
2023-03-19T17:18:02.850Z,39.25
2023-03-19T17:20:37.354Z,43.30
2023-03-19T17:23:13.109Z,45.05
2023-03-19T17:25:41.746Z,41.92
2023-03-19T17:28:09.507Z,43.72
2023-03-19T17:30:38.547Z,44.38
2023-03-19T17:33:06.411Z,33.40
2023-03-19T17:35:35.577Z,26.23
2023-03-19T17:38:03.891Z,33.63
2023-03-19T17:40:31.476Z,23.63
2023-03-19T17:43:01.705Z,31.98
2023-03-19T17:45:30.509Z,23.58
2023-03-19T17:47:58.994Z,25.83
2023-03-19T17:50:31.582Z,32.20
2023-03-19T17:53:01.066Z,25.90
2023-03-19T17:55:33.065Z,31.58
2023-03-19T17:58:00.690Z,21.52
2023-03-19T18:00:31.792Z,28.38
2023-03-19T18:02:59.629Z,33.58
2023-03-19T18:05:27.212Z,42.25
2023-03-19T18:07:56.386Z,39.63
2023-03-19T18:10:30.457Z,37.40
2023-03-19T18:13:00.162Z,37.97
2023-03-19T18:15:34.315Z,53.95
2023-03-19T18:18:05.418Z,50.70
2023-03-19T18:20:38.860Z,34.20
2023-03-19T18:23:07.438Z,48.90
2023-03-19T18:25:35.818Z,50.63
2023-03-19T18:28:04.558Z,37.45
2023-03-19T18:30:35.995Z,47.60
2023-03-19T18:33:06.890Z,57.00
2023-03-19T18:35:39.553Z,41.28
2023-03-19T18:38:24.633Z,47.70
2023-03-19T18:40:53.854Z,49.05
2023-03-19T18:43:24.971Z,54.60
2023-03-19T18:45:54.765Z,44.28
2023-03-19T18:48:27.618Z,49.65
2023-03-19T18:50:55.899Z,43.22
2023-03-19T18:53:24.172Z,42.75
2023-03-19T18:55:55.115Z,34.50
2023-03-19T18:58:27.633Z,37.25
2023-03-19T19:00:55.480Z,34.00
2023-03-19T19:03:29.542Z,37.47
2023-03-19T19:05:57.624Z,47.80
2023-03-19T19:08:26.859Z,40.10
2023-03-19T19:10:59.175Z,49.08
2023-03-19T19:13:33.874Z,39.65
2023-03-19T19:16:05.668Z,38.67
2023-03-19T19:18:33.968Z,44.90
2023-03-19T19:21:02.216Z,43.83
2023-03-19T19:23:31.617Z,34.40
2023-03-19T19:25:59.474Z,45.03
2023-03-19T19:28:41.429Z,49.72
2023-03-19T19:31:23.314Z,45.22
2023-03-19T19:33:51.692Z,38.28
2023-03-19T19:36:21.451Z,35.88
2023-03-19T19:38:52.777Z,41.67
2023-03-19T19:41:24.140Z,39.20
2023-03-19T19:43:53.719Z,38.42
2023-03-19T19:46:23.476Z,40.10
2023-03-19T19:51:22.755Z,38.35
2023-03-19T19:53:51.664Z,39.72
2023-03-19T19:56:24.767Z,43.00
2023-03-19T19:58:54.454Z,26.58
2023-03-19T20:01:27.450Z,32.38
2023-03-19T20:03:55.110Z,29.58
2023-03-19T20:06:22.770Z,37.20
2023-03-19T20:08:50.331Z,37.08
2023-03-19T20:11:23.541Z,27.25
2023-03-19T20:13:54.651Z,37.50
2023-03-19T20:16:26.190Z,26.63
2023-03-19T20:18:55.172Z,35.53
2023-03-19T20:21:23.398Z,31.92
2023-03-19T20:23:55.390Z,36.47
2023-03-19T20:26:25.261Z,37.65
2023-03-19T20:28:56.722Z,31.05
2023-03-19T20:31:29.925Z,39.95
2023-03-19T20:33:57.780Z,34.55
2023-03-19T20:36:26.788Z,30.60
2023-03-19T20:38:54.400Z,23.37
2023-03-19T20:43:55.614Z,28.95
2023-03-19T20:46:24.845Z,28.88
2023-03-19T20:48:52.399Z,20.95
2023-03-19T20:51:24.708Z,18.50
2023-03-19T20:53:55.471Z,13.50
2023-03-19T20:56:24.850Z,30.10
2023-03-19T20:58:54.018Z,26.67
2023-03-19T21:01:22.479Z,13.98
2023-03-19T21:03:50.421Z,10.88
2023-03-19T21:06:22.052Z,12.82
2023-03-19T21:08:54.431Z,11.93
2023-03-19T21:11:40.704Z,22.38
2023-03-19T21:14:16.284Z,22.85
2023-03-19T21:16:44.005Z,9.05
2023-03-19T21:19:14.335Z,10.60
2023-03-19T21:21:43.381Z,14.95
2023-03-19T21:24:17.614Z,11.05
2023-03-19T21:26:47.596Z,9.10
2023-03-19T21:29:27.302Z,8.93
2023-03-19T21:31:58.169Z,22.60
2023-03-19T21:34:26.331Z,12.55
2023-03-19T21:36:53.906Z,9.60
2023-03-19T21:39:22.163Z,15.20
2023-03-19T21:41:49.864Z,8.82
2023-03-19T21:44:22.782Z,8.30
2023-03-19T21:46:51.426Z,8.60
2023-03-19T21:49:19.001Z,16.02
2023-03-19T21:51:49.861Z,10.13
2023-03-19T21:54:17.812Z,10.15
2023-03-19T21:56:46.332Z,8.23
2023-03-19T21:59:18.060Z,10.88
2023-03-19T22:01:46.634Z,8.63
2023-03-19T22:04:14.296Z,10.52
2023-03-19T22:06:43.241Z,11.85
2023-03-19T22:09:13.246Z,13.50
2023-03-19T22:11:42.710Z,11.38
2023-03-19T22:14:13.115Z,7.78
2023-03-19T22:16:42.590Z,15.57
2023-03-19T22:19:19.266Z,12.02
2023-03-19T22:21:47.413Z,13.45
2023-03-19T22:24:15.877Z,20.92
2023-03-19T22:26:46.537Z,12.00
2023-03-19T22:29:25.426Z,10.60
2023-03-19T22:31:55.843Z,9.00
2023-03-19T22:34:26.196Z,15.00
2023-03-19T22:36:55.832Z,13.52
2023-03-19T22:39:23.499Z,19.40
2023-03-19T22:41:55.781Z,10.70
2023-03-19T22:44:29.207Z,13.20
2023-03-19T22:46:58.898Z,15.60
2023-03-19T22:49:28.106Z,9.27
2023-03-19T22:51:57.720Z,10.15
2023-03-19T22:54:28.164Z,10.85
2023-03-19T22:56:56.126Z,16.42
2023-03-19T22:59:23.717Z,11.45
2023-03-19T23:01:51.619Z,6.72
2023-03-19T23:04:22.890Z,13.38
2023-03-19T23:06:53.099Z,9.45
2023-03-19T23:09:38.823Z,16.73
2023-03-19T23:14:38.038Z,16.90
2023-03-19T23:17:19.719Z,35.13
2023-03-19T23:19:50.546Z,22.35
2023-03-19T23:22:18.208Z,30.15
2023-03-19T23:24:45.914Z,26.10
2023-03-19T23:27:24.699Z,19.83
2023-03-19T23:29:53.234Z,18.95
2023-03-19T23:32:21.892Z,18.02
2023-03-19T23:34:59.619Z,16.60
2023-03-19T23:37:29.440Z,16.30
2023-03-19T23:40:00.871Z,20.25
2023-03-19T23:42:31.907Z,17.97
2023-03-19T23:45:04.673Z,28.85
2023-03-19T23:47:34.112Z,23.27
2023-03-19T23:50:01.869Z,18.27
2023-03-19T23:52:29.720Z,19.15
2023-03-19T23:54:57.798Z,14.10
2023-03-19T23:57:26.745Z,23.25
2023-03-19T23:59:55.027Z,18.42
